Ana Sayfa
METAR-TAF:

METAR-TAF

Havaalanları :

Ouagadougou, Burkina Faso

Enlem: 12-21N, Boylam: 001-31W, yükseklik: 316 m

Güncel hava durumu gözlemi

Rapor saat 17:00 UTC de 2 saat ve 30 dakika önce yapıldı.
Rüzgar kuzeydoğudan 8 kt
Sıcaklık 33°C
Nem 9%
Basınç 1012 hPa
Görüş mesafesi: 8000 m

METAR: DFFD 181700Z 05008KT 8000 NSC 33/M04 Q1012 NOSIG

Saat: 19:30 (19:30 UTC)

Tahmin

Rapor saat 17:00 UTC de 2 saat ve 30 dakika önce yapıldı.
Ayın 18'si saat 18 UTC'den ayın 19'si saat 24 UTC'ye kadar geçerli Tahmin
Rüzgar doğudan 8 kt
Görüş mesafesi: 8000 m
Geçici
ayın 18'si saat 18 UTC'den ayın 18'si saat 20 UTC'ye kadar
Görüş mesafesi: 4000 m
yaygın toz
Geçici
ayın 19'si saat 06 UTC'den ayın 19'si saat 10 UTC'ye kadar
Görüş mesafesi: 4000 m
yaygın toz
Geçici
ayın 19'si saat 17 UTC'den ayın 19'si saat 20 UTC'ye kadar
Görüş mesafesi: 4000 m
yaygın toz

TAF: DFFD 181700Z 1818/1924 08008KT 8000 NSC TEMPO 1818/1820 4000 DU TEMPO 1906/1910 4000 DU TEMPO 1917/1920 4000 DU

4.000'den fazla havaalanı için hava durumu gözlemleri ve tahminleri (METAR ve TAF raporları).

Kullanılabilir istasyonlar harita üzerinde sarı ve kırmızı noktalarla gösterilir.

İstasyonun adını görmek için fareyi noktanın üzerinde gezdirin.

Sonrasında hava gözlem ve tahminlerini görmek için tıklayın.

Haritayı değiştirmek için: yaklaştırmak için siyah artı işaretli yeşil düğmeye ve uzaklaştırmak için de eksi işaretli düğmeye hızla tıklayın; bitişik haritalar için yeşil okları kullanın.


METAR-TAF: